Time;durP1;ratioP1;P1;durP2;ratioP2;P2;SDS_P1;SDS_P2;PMS_P1;PMS_P2;Temp;Humidity;BMP_temperature;BMP_pressure;BME280_temperature;BME280_humidity;BME280_pressure;Samples;Min_cycle;Max_cycle;Signal;HPM_P1;HPM_P2
2022/01/11 00:00:28;;;;;;;108.27;60.43;;;-0.50;29.20;;;;;;6301253;28;20243;-55
2022/01/11 00:03:33;;;;;;;99.27;57.93;;;-0.40;29.30;;;;;;6297588;28;20378;-56
2022/01/11 00:06:41;;;;;;;103.77;60.90;;;-0.40;29.60;;;;;;6325239;28;20638;-56
2022/01/11 00:09:45;;;;;;;105.00;59.13;;;-0.60;30.40;;;;;;6302273;28;20375;-57
2022/01/11 00:12:48;;;;;;;102.43;61.77;;;-0.60;30.50;;;;;;6286974;28;20447;-57
2022/01/11 00:15:51;;;;;;;101.80;60.83;;;-0.60;30.70;;;;;;6298927;28;20370;-56
2022/01/11 00:18:55;;;;;;;114.13;63.40;;;-0.70;30.30;;;;;;6308287;28;20240;-56
2022/01/11 00:22:00;;;;;;;112.70;62.63;;;-0.80;31.30;;;;;;6307874;28;20233;-56
2022/01/11 00:25:02;;;;;;;100.83;59.87;;;-0.70;31.70;;;;;;6308136;28;20240;-55
2022/01/11 00:28:07;;;;;;;108.60;60.03;;;-0.80;31.30;;;;;;6307147;28;20346;-56
2022/01/11 00:31:10;;;;;;;106.60;61.30;;;-0.80;32.10;;;;;;6300486;28;20232;-55
2022/01/11 00:34:17;;;;;;;104.83;60.90;;;-0.70;32.80;;;;;;6277760;28;20233;-55
2022/01/11 00:37:21;;;;;;;114.17;62.50;;;-0.60;33.00;;;;;;6318924;28;20315;-57
2022/01/11 00:40:24;;;;;;;109.67;62.10;;;-0.90;32.70;;;;;;6303600;28;20283;-56
2022/01/11 00:43:28;;;;;;;107.33;62.87;;;-0.90;32.30;;;;;;6291308;28;20237;-57
2022/01/11 00:46:31;;;;;;;107.93;60.93;;;-0.90;34.00;;;;;;6309001;28;20632;-56
2022/01/11 00:49:36;;;;;;;115.80;63.27;;;-0.80;33.60;;;;;;6306257;28;20725;-56
2022/01/11 00:52:38;;;;;;;105.43;62.40;;;-0.70;33.10;;;;;;6298517;28;20794;-56
2022/01/11 00:55:41;;;;;;;116.93;63.13;;;-1.00;32.80;;;;;;6312387;28;20232;-57
2022/01/11 00:58:44;;;;;;;119.20;64.70;;;-0.80;34.00;;;;;;6310675;28;20312;-56
2022/01/11 01:01:47;;;;;;;113.87;63.70;;;-0.80;34.40;;;;;;6306218;28;20232;-56
2022/01/11 01:04:52;;;;;;;118.50;64.10;;;-1.10;34.40;;;;;;6318071;28;20369;-56
2022/01/11 01:07:55;;;;;;;117.00;63.50;;;-1.10;34.80;;;;;;6300221;28;20371;-56
2022/01/11 01:10:57;;;;;;;119.30;65.10;;;-1.10;34.90;;;;;;6300696;28;20249;-57
2022/01/11 01:14:00;;;;;;;122.90;65.97;;;-1.00;36.10;;;;;;6298153;28;20478;-56
2022/01/11 01:17:03;;;;;;;117.33;64.80;;;-0.90;37.20;;;;;;6307856;28;20622;-57
2022/01/11 01:20:09;;;;;;;120.93;64.27;;;-1.00;38.10;;;;;;6287406;28;20328;-56
2022/01/11 01:23:12;;;;;;;117.50;64.23;;;-0.90;37.70;;;;;;6310245;28;20289;-56
2022/01/11 01:26:17;;;;;;;116.53;63.60;;;-0.80;36.60;;;;;;6305763;28;20233;-60
2022/01/11 01:29:21;;;;;;;124.27;62.90;;;-1.00;35.40;;;;;;6309333;28;20244;-56
2022/01/11 01:32:26;;;;;;;120.40;65.07;;;-1.00;35.40;;;;;;6288385;28;20301;-57
2022/01/11 01:35:35;;;;;;;121.07;61.57;;;-1.00;36.70;;;;;;6318759;28;20782;-55
2022/01/11 01:38:38;;;;;;;118.43;62.30;;;-1.00;36.70;;;;;;6332874;28;20329;-56
2022/01/11 01:41:43;;;;;;;116.80;61.17;;;-1.20;36.40;;;;;;6306560;28;20744;-58
2022/01/11 01:44:48;;;;;;;114.70;59.17;;;-1.00;35.50;;;;;;6311225;28;20351;-56
2022/01/11 01:47:56;;;;;;;115.77;60.37;;;-1.20;36.30;;;;;;6303694;28;20748;-55
2022/01/11 01:51:00;;;;;;;118.90;61.03;;;-1.20;37.70;;;;;;6288550;28;20332;-56
2022/01/11 01:54:03;;;;;;;112.90;58.40;;;-1.40;36.60;;;;;;6300792;28;20290;-56
2022/01/11 01:57:06;;;;;;;115.47;59.83;;;-1.10;36.90;;;;;;6304954;28;20500;-57
2022/01/11 02:00:12;;;;;;;110.53;59.23;;;-1.20;37.00;;;;;;6304966;28;20773;-56
2022/01/11 02:03:17;;;;;;;117.33;58.30;;;-1.10;36.60;;;;;;6301257;28;20309;-57
2022/01/11 02:06:21;;;;;;;118.20;61.03;;;-1.00;37.30;;;;;;6327718;28;20234;-63
2022/01/11 02:09:24;;;;;;;113.93;57.23;;;-1.10;38.00;;;;;;6317173;28;20709;-56
2022/01/11 02:12:28;;;;;;;116.50;59.60;;;-1.30;37.40;;;;;;6291353;28;20319;-55
2022/01/11 02:15:31;;;;;;;115.97;59.03;;;-1.00;38.10;;;;;;6286199;28;20262;-55
2022/01/11 02:18:34;;;;;;;116.50;60.47;;;-1.00;37.80;;;;;;6285318;28;20244;-57
2022/01/11 02:21:39;;;;;;;121.10;61.33;;;-1.00;38.50;;;;;;6310996;28;20321;-56
2022/01/11 02:24:41;;;;;;;119.20;60.53;;;-1.10;37.40;;;;;;6311637;28;20347;-57
2022/01/11 02:27:44;;;;;;;114.20;57.50;;;-1.00;38.30;;;;;;6300322;28;20274;-60
2022/01/11 02:30:47;;;;;;;113.77;56.27;;;-1.10;37.50;;;;;;6285146;28;20333;-57
2022/01/11 02:33:52;;;;;;;118.43;57.20;;;-1.20;36.80;;;;;;6304550;28;20712;-56
2022/01/11 02:36:56;;;;;;;120.80;57.33;;;-0.90;37.80;;;;;;6315997;28;20282;-56
2022/01/11 02:39:59;;;;;;;117.93;56.80;;;-0.90;37.30;;;;;;6299408;28;20240;-56
2022/01/11 02:43:01;;;;;;;121.30;59.33;;;-0.90;36.90;;;;;;6289401;28;20368;-56
2022/01/11 02:46:04;;;;;;;121.87;56.57;;;-1.20;38.10;;;;;;6292388;28;20333;-56
2022/01/11 02:49:07;;;;;;;122.07;54.73;;;-0.90;38.60;;;;;;6309188;28;20232;-55
2022/01/11 02:52:11;;;;;;;110.97;52.70;;;-0.90;38.30;;;;;;6309837;28;20366;-55
2022/01/11 02:55:15;;;;;;;117.93;55.47;;;-0.90;36.80;;;;;;6298899;28;20336;-56
2022/01/11 02:58:18;;;;;;;107.13;50.33;;;-1.20;37.90;;;;;;6284779;28;20244;-56
2022/01/11 03:01:21;;;;;;;114.93;50.10;;;-1.10;38.50;;;;;;6284571;28;20825;-56
2022/01/11 03:04:28;;;;;;;109.20;49.57;;;-1.30;39.50;;;;;;6311149;28;20244;-55
2022/01/11 03:07:33;;;;;;;110.20;52.60;;;-1.30;39.70;;;;;;6327936;28;20306;-56
2022/01/11 03:10:36;;;;;;;108.47;48.33;;;-1.40;40.50;;;;;;6291705;28;20319;-56
2022/01/11 03:13:41;;;;;;;109.57;50.33;;;-1.30;41.30;;;;;;6306639;28;20224;-54
2022/01/11 03:16:44;;;;;;;105.63;49.33;;;-1.30;41.10;;;;;;6309715;28;20904;-56
2022/01/11 03:19:47;;;;;;;105.90;49.33;;;-1.50;41.20;;;;;;6303189;28;20236;-55
2022/01/11 03:22:52;;;;;;;107.73;49.67;;;-1.40;41.30;;;;;;6302054;28;20383;-55
2022/01/11 03:25:54;;;;;;;107.47;48.37;;;-1.30;40.90;;;;;;6298980;28;20237;-56
2022/01/11 03:28:57;;;;;;;117.27;49.70;;;-1.40;41.00;;;;;;6305472;28;20708;-55
2022/01/11 03:32:00;;;;;;;107.10;48.50;;;-1.30;41.30;;;;;;6309163;28;20614;-55
2022/01/11 03:35:04;;;;;;;110.10;49.03;;;-1.30;40.60;;;;;;6316405;28;20532;-55
2022/01/11 03:38:09;;;;;;;112.00;50.57;;;-1.50;41.40;;;;;;6327888;28;20240;-55
2022/01/11 03:41:13;;;;;;;112.23;49.80;;;-1.30;41.40;;;;;;6290754;28;20273;-56
2022/01/11 03:44:15;;;;;;;106.97;46.97;;;-1.20;41.80;;;;;;6291683;28;20233;-56
2022/01/11 03:47:19;;;;;;;113.10;48.40;;;-1.10;40.50;;;;;;6304566;28;20260;-55
2022/01/11 03:50:22;;;;;;;113.20;50.17;;;-1.30;40.80;;;;;;6307483;28;20256;-55
2022/01/11 03:53:31;;;;;;;93.77;43.37;;;-1.00;40.30;;;;;;6308472;28;20705;-54
2022/01/11 03:56:34;;;;;;;94.80;43.67;;;-1.00;40.70;;;;;;6306252;28;20313;-55
2022/01/11 03:59:37;;;;;;;91.50;41.50;;;-1.30;40.40;;;;;;6286854;28;20253;-55
2022/01/11 04:02:40;;;;;;;94.40;43.20;;;-1.00;39.20;;;;;;6287122;28;20720;-55
2022/01/11 04:05:44;;;;;;;84.00;40.37;;;-1.20;38.60;;;;;;6318080;28;20282;-56
2022/01/11 04:08:48;;;;;;;86.43;39.37;;;-1.20;38.20;;;;;;6325872;28;20391;-54
2022/01/11 04:11:51;;;;;;;79.67;39.07;;;-1.00;36.70;;;;;;6306787;28;20240;-54
2022/01/11 04:14:54;;;;;;;84.27;38.70;;;-0.80;37.10;;;;;;6304740;28;20315;-55
2022/01/11 04:17:56;;;;;;;86.37;39.00;;;-1.10;37.40;;;;;;6304328;28;20689;-55
2022/01/11 04:20:59;;;;;;;79.70;37.77;;;-1.20;37.90;;;;;;6291869;28;20264;-55
2022/01/11 04:24:04;;;;;;;88.47;40.33;;;-1.20;38.00;;;;;;6292435;28;20319;-55
2022/01/11 04:27:07;;;;;;;87.17;39.57;;;-1.10;39.10;;;;;;6291197;28;20343;-56
2022/01/11 04:30:11;;;;;;;99.17;41.10;;;-1.10;37.90;;;;;;6292044;28;20233;-56
2022/01/11 04:33:14;;;;;;;86.93;39.17;;;-1.20;38.70;;;;;;6282614;28;20293;-56
2022/01/11 04:36:17;;;;;;;82.37;39.87;;;-0.90;38.70;;;;;;6306866;28;20243;-55
2022/01/11 04:39:22;;;;;;;88.80;41.07;;;-1.10;39.10;;;;;;6309033;28;20392;-56
2022/01/11 04:42:25;;;;;;;89.03;41.47;;;-1.30;39.40;;;;;;6303728;28;20244;-55
2022/01/11 04:45:28;;;;;;;94.70;41.87;;;-1.10;40.60;;;;;;6302869;28;20241;-56
2022/01/11 04:48:32;;;;;;;90.97;40.57;;;-1.20;40.90;;;;;;6291403;28;20503;-55
2022/01/11 04:51:35;;;;;;;102.20;40.57;;;-1.30;40.90;;;;;;6300282;28;20228;-54
2022/01/11 04:54:40;;;;;;;86.37;39.10;;;-1.30;41.00;;;;;;6305283;28;22793;-56
2022/01/11 04:57:43;;;;;;;82.27;38.07;;;-1.00;41.40;;;;;;6300629;28;20236;-55
2022/01/11 05:00:47;;;;;;;86.57;38.20;;;-1.10;40.00;;;;;;6298831;28;20278;-56
2022/01/11 05:03:50;;;;;;;85.13;38.83;;;-1.20;39.60;;;;;;6301949;28;20327;-55
2022/01/11 05:06:55;;;;;;;80.40;39.40;;;-0.90;38.40;;;;;;6305443;28;20301;-55
2022/01/11 05:09:59;;;;;;;89.37;40.37;;;-1.10;39.30;;;;;;6304132;28;20781;-56
2022/01/11 05:13:01;;;;;;;89.00;38.17;;;-1.20;39.00;;;;;;6294486;28;20417;-55
2022/01/11 05:16:05;;;;;;;84.20;38.93;;;-1.00;38.50;;;;;;6301394;28;20236;-55
2022/01/11 05:19:12;;;;;;;88.17;40.30;;;-1.10;39.70;;;;;;6294585;28;20312;-60
2022/01/11 05:22:15;;;;;;;89.83;39.80;;;-1.30;39.40;;;;;;6291294;28;20287;-55
2022/01/11 05:25:20;;;;;;;94.00;40.70;;;-1.20;39.40;;;;;;6288328;28;20233;-55
2022/01/11 05:28:23;;;;;;;85.93;39.77;;;-1.30;40.10;;;;;;6309543;28;20323;-56
2022/01/11 05:31:26;;;;;;;87.83;38.43;;;-1.20;39.50;;;;;;6309694;28;20502;-55
2022/01/11 05:34:31;;;;;;;81.20;36.67;;;-1.20;39.20;;;;;;6288853;28;20237;-55
2022/01/11 05:37:34;;;;;;;80.17;37.87;;;-1.30;38.00;;;;;;6292686;28;20545;-55
2022/01/11 05:40:38;;;;;;;86.97;36.80;;;-1.40;40.20;;;;;;6299163;28;20375;-56
2022/01/11 05:43:41;;;;;;;88.57;38.80;;;-1.20;39.00;;;;;;6297421;28;20656;-56
2022/01/11 05:46:44;;;;;;;85.90;37.70;;;-1.30;38.30;;;;;;6291742;28;20325;-56
2022/01/11 05:49:47;;;;;;;78.17;35.70;;;-1.10;38.90;;;;;;6294495;28;20386;-56
2022/01/11 05:52:50;;;;;;;81.03;37.90;;;-1.30;39.20;;;;;;6290114;28;20276;-56
2022/01/11 05:55:54;;;;;;;85.10;37.30;;;-1.30;37.60;;;;;;6290937;28;20338;-56
2022/01/11 05:58:57;;;;;;;86.33;36.90;;;-1.30;38.80;;;;;;6291720;28;20837;-56
2022/01/11 06:02:00;;;;;;;83.73;38.23;;;-0.90;39.00;;;;;;6289036;28;20320;-56
2022/01/11 06:05:03;;;;;;;89.37;38.80;;;-0.90;37.50;;;;;;6292472;28;20662;-56
2022/01/11 06:08:07;;;;;;;83.33;37.43;;;-1.30;39.10;;;;;;6299764;28;20379;-56
2022/01/11 06:11:12;;;;;;;89.23;36.70;;;-1.30;39.70;;;;;;6297669;28;20331;-56
2022/01/11 06:14:14;;;;;;;81.07;37.40;;;-1.30;38.30;;;;;;6286486;28;20513;-54
2022/01/11 06:17:17;;;;;;;83.87;36.77;;;-1.10;38.50;;;;;;6293942;28;20342;-55
2022/01/11 06:20:20;;;;;;;78.03;35.47;;;-1.20;39.40;;;;;;6287384;28;20367;-55
2022/01/11 06:23:22;;;;;;;77.27;35.40;;;-1.50;39.40;;;;;;6297857;28;20768;-56
2022/01/11 06:26:26;;;;;;;76.77;36.37;;;-1.40;40.40;;;;;;6291845;28;20242;-54
2022/01/11 06:29:29;;;;;;;85.87;37.30;;;-1.40;39.60;;;;;;6301575;28;20320;-53
2022/01/11 06:32:32;;;;;;;86.10;37.70;;;-1.30;38.00;;;;;;6288888;28;20328;-54
2022/01/11 06:35:34;;;;;;;71.73;33.53;;;-1.20;40.30;;;;;;6299644;28;20301;-55
2022/01/11 06:38:39;;;;;;;80.00;35.27;;;-1.40;39.20;;;;;;6303203;28;20221;-55
2022/01/11 06:41:43;;;;;;;77.33;36.60;;;-1.40;39.70;;;;;;6289147;28;20814;-55
2022/01/11 06:44:45;;;;;;;78.50;34.80;;;-1.40;39.10;;;;;;6295956;28;20233;-55
2022/01/11 06:47:48;;;;;;;75.03;33.10;;;-1.30;39.50;;;;;;6286723;28;20233;-55
2022/01/11 06:50:51;;;;;;;71.97;33.03;;;-1.30;39.60;;;;;;6285622;28;20248;-54
2022/01/11 06:53:54;;;;;;;70.67;34.17;;;-1.30;38.60;;;;;;6289347;28;20324;-55
2022/01/11 06:56:58;;;;;;;74.07;33.50;;;-1.20;38.60;;;;;;6289579;28;20237;-56
2022/01/11 07:00:01;;;;;;;67.37;33.57;;;-1.30;37.80;;;;;;6289675;28;20311;-55
2022/01/11 07:03:06;;;;;;;70.70;32.67;;;-1.10;37.70;;;;;;6292408;28;20320;-54
2022/01/11 07:06:09;;;;;;;71.10;32.67;;;-1.10;37.00;;;;;;6303755;28;20232;-56
2022/01/11 07:09:11;;;;;;;69.83;31.50;;;-1.50;37.40;;;;;;6294643;28;20427;-56
2022/01/11 07:12:15;;;;;;;69.10;33.37;;;-1.40;37.40;;;;;;6290199;28;20270;-55
2022/01/11 07:15:19;;;;;;;63.70;32.20;;;-1.20;37.90;;;;;;6287500;28;21061;-56
2022/01/11 07:18:22;;;;;;;70.63;33.27;;;-1.30;39.00;;;;;;6291425;28;20236;-56
2022/01/11 07:21:24;;;;;;;69.07;32.43;;;-1.50;39.00;;;;;;6286294;28;20398;-56
2022/01/11 07:24:28;;;;;;;63.30;31.93;;;-1.40;37.70;;;;;;6299256;28;20340;-56
2022/01/11 07:27:34;;;;;;;65.17;31.20;;;-1.30;39.00;;;;;;6307238;28;20366;-56
2022/01/11 07:30:36;;;;;;;67.10;31.80;;;-1.10;38.10;;;;;;6299461;28;20462;-55
2022/01/11 07:33:39;;;;;;;65.00;31.07;;;-1.20;38.00;;;;;;6293623;28;20700;-56
2022/01/11 07:36:42;;;;;;;60.60;30.60;;;-1.00;37.90;;;;;;6290938;28;20233;-55
2022/01/11 07:39:45;;;;;;;63.80;30.93;;;-1.30;35.90;;;;;;6297619;28;20313;-55
2022/01/11 07:42:50;;;;;;;58.63;29.87;;;-1.20;34.70;;;;;;6292342;28;20332;-54
2022/01/11 07:45:52;;;;;;;65.43;31.83;;;-1.10;33.30;;;;;;6289468;28;20236;-55
2022/01/11 07:48:57;;;;;;;55.73;29.60;;;-1.10;33.60;;;;;;6297499;28;20288;-55
2022/01/11 07:51:59;;;;;;;56.27;30.07;;;-0.90;34.90;;;;;;6292342;28;20241;-54
2022/01/11 07:55:02;;;;;;;63.47;30.93;;;-1.00;34.70;;;;;;6293626;28;20322;-57
2022/01/11 07:58:06;;;;;;;57.80;30.90;;;-1.10;34.70;;;;;;6287759;28;20273;-56
2022/01/11 08:01:09;;;;;;;56.17;30.63;;;-1.30;34.70;;;;;;6296270;28;20881;-55
2022/01/11 08:04:12;;;;;;;59.47;29.80;;;-1.40;35.20;;;;;;6295989;28;20241;-56
2022/01/11 08:07:15;;;;;;;57.87;28.93;;;-1.20;36.40;;;;;;6295320;28;20278;-56
2022/01/11 08:10:18;;;;;;;67.27;32.93;;;-1.20;36.30;;;;;;6298539;28;20348;-55
2022/01/11 08:13:30;;;;;;;54.47;29.23;;;-1.30;36.70;;;;;;6287164;28;20230;-56
2022/01/11 08:16:33;;;;;;;59.07;28.77;;;-1.20;37.20;;;;;;6300012;28;20245;-56
2022/01/11 08:19:41;;;;;;;56.80;31.13;;;-1.30;36.30;;;;;;6283526;28;20233;-58
2022/01/11 08:22:48;;;;;;;65.93;32.97;;;-1.20;36.20;;;;;;6289138;28;20282;-56
2022/01/11 08:25:51;;;;;;;58.13;29.77;;;-1.00;37.10;;;;;;6285342;28;20343;-55
2022/01/11 08:28:55;;;;;;;60.10;29.93;;;-0.80;36.50;;;;;;6284452;28;20237;-56
2022/01/11 08:31:58;;;;;;;55.90;29.50;;;-1.00;35.40;;;;;;6294537;28;20625;-54
2022/01/11 08:35:00;;;;;;;58.10;29.20;;;-1.00;34.30;;;;;;6293265;28;20243;-56
2022/01/11 08:38:04;;;;;;;54.23;29.07;;;-1.10;33.20;;;;;;6296847;28;20245;-56
2022/01/11 08:41:07;;;;;;;46.90;27.80;;;-0.90;33.50;;;;;;6293804;28;20265;-55
2022/01/11 08:44:12;;;;;;;50.17;27.83;;;-0.90;33.80;;;;;;6286497;28;20312;-55
2022/01/11 08:47:15;;;;;;;57.97;29.17;;;-1.00;31.90;;;;;;6289643;28;20849;-55
2022/01/11 08:50:18;;;;;;;54.87;29.73;;;-0.80;30.20;;;;;;6285459;28;20233;-55
2022/01/11 08:53:21;;;;;;;54.10;30.33;;;-0.60;31.60;;;;;;6283549;28;20234;-56
2022/01/11 08:56:25;;;;;;;53.50;29.13;;;-0.80;30.50;;;;;;6293558;28;20248;-55
2022/01/11 08:59:29;;;;;;;49.57;28.00;;;-1.00;30.80;;;;;;6293400;28;20311;-56
2022/01/11 09:02:37;;;;;;;53.27;29.27;;;-0.80;32.80;;;;;;6298324;28;20229;-56
2022/01/11 09:05:40;;;;;;;55.90;30.13;;;-0.60;33.70;;;;;;6294325;28;20748;-55
2022/01/11 09:08:43;;;;;;;52.93;29.47;;;-0.70;32.20;;;;;;6296422;28;20233;-55
2022/01/11 09:11:46;;;;;;;53.70;28.73;;;-0.70;30.80;;;;;;6290166;28;20306;-55
2022/01/11 09:14:50;;;;;;;51.27;29.40;;;-0.50;30.20;;;;;;6287841;28;20291;-56
2022/01/11 09:17:53;;;;;;;55.93;30.23;;;-0.80;31.20;;;;;;6289603;28;20335;-56
2022/01/11 09:21:00;;;;;;;53.63;28.37;;;-0.60;32.30;;;;;;6272259;28;20313;-55
2022/01/11 09:24:02;;;;;;;57.60;29.90;;;-0.70;30.60;;;;;;6295680;28;20661;-54
2022/01/11 09:27:06;;;;;;;54.47;29.60;;;-0.60;31.20;;;;;;6300392;28;20332;-53
2022/01/11 09:30:13;;;;;;;52.93;28.73;;;-0.60;32.50;;;;;;6296991;28;20305;-55
2022/01/11 09:33:17;;;;;;;58.67;30.10;;;-0.50;31.20;;;;;;6298343;28;20322;-55
2022/01/11 09:36:19;;;;;;;56.57;31.00;;;-0.70;29.80;;;;;;6295119;28;20370;-54
2022/01/11 09:39:23;;;;;;;51.27;29.60;;;-0.30;31.30;;;;;;6302023;28;20236;-56
2022/01/11 09:42:26;;;;;;;54.73;29.63;;;-0.70;31.00;;;;;;6295541;28;20309;-55
2022/01/11 09:45:31;;;;;;;58.90;30.10;;;-0.30;31.50;;;;;;6291084;28;20683;-55
2022/01/11 09:48:36;;;;;;;51.00;29.43;;;-0.30;29.60;;;;;;6286161;28;20248;-55
2022/01/11 09:51:39;;;;;;;53.40;28.47;;;-0.10;29.40;;;;;;6289406;28;20232;-54
2022/01/11 09:54:44;;;;;;;52.40;28.97;;;-0.30;28.20;;;;;;6289269;28;20237;-55
2022/01/11 09:57:47;;;;;;;46.30;27.50;;;-0.20;28.00;;;;;;6284930;28;20684;-55
2022/01/11 10:00:51;;;;;;;52.23;29.60;;;-0.20;27.10;;;;;;6294680;28;20338;-55
2022/01/11 10:03:58;;;;;;;53.80;29.80;;;-0.40;28.80;;;;;;6300621;28;20241;-54
2022/01/11 10:07:03;;;;;;;52.53;29.27;;;-0.20;27.80;;;;;;6305693;28;20248;-55
2022/01/11 10:10:12;;;;;;;49.77;28.40;;;-0.40;26.80;;;;;;6303963;28;20769;-55
2022/01/11 10:13:33;;;;;;;43.40;25.67;;;-0.40;28.20;;;;;;6296660;28;20717;-55
2022/01/11 10:16:37;;;;;;;45.27;26.77;;;-0.70;27.50;;;;;;6295449;28;20675;-55
2022/01/11 10:19:42;;;;;;;45.40;26.80;;;-0.80;28.30;;;;;;6292482;28;20225;-54
2022/01/11 10:22:47;;;;;;;44.47;25.30;;;-0.70;27.70;;;;;;6291160;28;20318;-55
2022/01/11 10:25:50;;;;;;;48.73;26.30;;;-0.40;27.60;;;;;;6285817;28;20699;-55
2022/01/11 10:28:55;;;;;;;44.00;26.33;;;-0.50;28.80;;;;;;6284397;28;20241;-56
2022/01/11 10:32:02;;;;;;;46.70;27.23;;;-0.20;27.10;;;;;;6291718;28;20335;-55
2022/01/11 10:35:08;;;;;;;50.23;28.33;;;-0.10;26.40;;;;;;6297665;28;20237;-56
2022/01/11 10:38:13;;;;;;;47.63;28.53;;;0.00;27.10;;;;;;6291520;28;20315;-56
2022/01/11 10:41:41;;;;;;;53.73;27.93;;;-0.10;26.40;;;;;;6288065;28;20240;-56
2022/01/11 10:44:47;;;;;;;51.30;28.67;;;0.00;26.00;;;;;;6287551;28;20437;-54
2022/01/11 10:47:54;;;;;;;45.43;26.07;;;-0.10;25.20;;;;;;6284668;28;20324;-55
2022/01/11 10:51:01;;;;;;;44.93;26.57;;;0.10;23.40;;;;;;6300181;28;20795;-56
2022/01/11 10:54:11;;;;;;;47.40;27.20;;;0.10;23.10;;;;;;6291754;28;20320;-53
2022/01/11 10:57:18;;;;;;;48.17;28.17;;;0.30;23.00;;;;;;6300229;28;20225;-55
2022/01/11 11:00:27;;;;;;;40.67;25.33;;;0.20;21.80;;;;;;6299074;28;20302;-55
2022/01/11 11:03:34;;;;;;;45.67;27.57;;;0.20;24.50;;;;;;6302910;28;20534;-54
2022/01/11 11:06:36;;;;;;;45.50;26.73;;;0.10;23.90;;;;;;6298004;28;20315;-55
2022/01/11 11:09:47;;;;;;;42.03;26.07;;;-0.10;23.30;;;;;;6299802;28;20324;-56
2022/01/11 11:12:55;;;;;;;45.43;26.77;;;0.20;22.70;;;;;;6293026;28;20327;-54
2022/01/11 11:16:08;;;;;;;43.83;26.90;;;0.10;20.90;;;;;;6303424;28;20239;-56
2022/01/11 11:19:13;;;;;;;42.43;25.53;;;0.30;21.20;;;;;;6305146;28;20241;-55
2022/01/11 11:22:15;;;;;;;38.70;24.97;;;0.40;20.80;;;;;;6305760;28;20372;-55
2022/01/11 11:25:18;;;;;;;39.57;24.80;;;0.40;18.30;;;;;;6306716;28;20399;-55
2022/01/11 11:28:22;;;;;;;44.80;25.87;;;0.10;20.50;;;;;;6301857;28;20725;-55
2022/01/11 11:31:25;;;;;;;47.80;27.17;;;0.30;18.40;;;;;;6299632;28;20332;-55
2022/01/11 11:34:31;;;;;;;46.80;27.23;;;0.40;18.20;;;;;;6303447;28;20236;-55
2022/01/11 11:37:37;;;;;;;48.40;27.83;;;0.20;19.80;;;;;;6302634;28;20284;-55
2022/01/11 11:40:41;;;;;;;42.00;26.77;;;0.10;19.50;;;;;;6302583;28;20252;-55
2022/01/11 11:43:44;;;;;;;43.80;26.83;;;0.30;21.40;;;;;;6304199;28;20463;-56
2022/01/11 11:46:50;;;;;;;49.83;27.57;;;0.40;22.80;;;;;;6302440;28;20709;-56
2022/01/11 11:49:55;;;;;;;46.13;26.80;;;0.50;19.60;;;;;;6297380;28;20779;-56
2022/01/11 11:52:58;;;;;;;48.60;28.53;;;0.50;16.00;;;;;;6307774;28;20619;-55
2022/01/11 11:56:16;;;;;;;44.27;27.37;;;0.70;12.10;;;;;;6302729;28;20236;-56
2022/01/11 11:59:19;;;;;;;41.70;26.97;;;0.70;14.00;;;;;;6297609;28;20280;-55
2022/01/11 12:02:34;;;;;;;46.00;28.07;;;1.00;13.30;;;;;;6303950;28;20241;-56
2022/01/11 12:05:40;;;;;;;45.40;27.33;;;0.90;11.40;;;;;;6303364;28;20605;-56
2022/01/11 12:08:44;;;;;;;45.90;28.77;;;0.50;11.60;;;;;;6299603;28;20295;-56
2022/01/11 12:11:52;;;;;;;47.57;28.67;;;0.80;12.50;;;;;;6304733;28;20271;-55
2022/01/11 12:14:55;;;;;;;45.47;27.27;;;0.60;12.10;;;;;;6305795;28;20730;-56
2022/01/11 12:18:13;;;;;;;45.10;27.17;;;0.70;12.40;;;;;;6305373;28;20240;-55
2022/01/11 12:21:17;;;;;;;45.30;28.10;;;0.80;13.00;;;;;;6299813;28;20740;-55
2022/01/11 12:24:34;;;;;;;43.83;26.43;;;0.70;14.20;;;;;;6298887;28;20235;-56
2022/01/11 12:27:59;;;;;;;41.60;26.13;;;0.90;14.80;;;;;;6278714;28;20386;-53
2022/01/11 12:31:24;;;;;;;44.10;26.77;;;1.00;10.30;;;;;;6311450;28;20602;-55
2022/01/11 12:34:50;;;;;;;44.07;26.63;;;1.10;10.70;;;;;;6304965;28;20664;-56
2022/01/11 12:38:09;;;;;;;41.67;25.77;;;1.10;9.90;;;;;;6303365;28;20242;-55
2022/01/11 12:41:28;;;;;;;45.57;25.37;;;1.00;7.80;;;;;;6292781;28;20316;-56
2022/01/11 12:45:35;;;;;;;47.23;28.37;;;1.10;9.00;;;;;;6301392;28;20304;-55
2022/01/11 12:47:57;;;;;;;48.00;27.20;;;1.20;9.10;;;;;;6309283;28;20335;-56
2022/01/11 12:51:01;;;;;;;45.37;27.60;;;1.10;10.00;;;;;;6310931;28;20617;-56
2022/01/11 12:54:24;;;;;;;43.50;25.77;;;1.10;7.70;;;;;;6304801;28;20708;-55
2022/01/11 12:57:29;;;;;;;47.43;28.83;;;1.00;8.90;;;;;;6296697;28;20282;-55
2022/01/11 13:00:32;;;;;;;42.50;26.37;;;1.10;9.50;;;;;;6306171;28;20416;-55
2022/01/11 13:03:48;;;;;;;49.10;28.83;;;1.10;9.90;;;;;;6306893;28;20545;-55
2022/01/11 13:06:51;;;;;;;39.93;25.30;;;1.10;10.20;;;;;;6308758;28;20319;-56
2022/01/11 13:10:18;;;;;;;40.03;25.73;;;1.00;10.10;;;;;;6299766;28;20332;-55
2022/01/11 13:13:26;;;;;;;42.13;25.87;;;1.00;8.90;;;;;;6294969;28;20229;-56
2022/01/11 13:16:30;;;;;;;42.20;24.67;;;1.20;7.10;;;;;;6298048;28;20477;-57
2022/01/11 13:19:34;;;;;;;43.43;26.33;;;1.10;7.10;;;;;;6300129;28;20383;-58
2022/01/11 13:22:54;;;;;;;39.63;25.00;;;1.00;7.20;;;;;;6297713;28;20259;-55
2022/01/11 13:26:01;;;;;;;39.90;25.20;;;1.30;7.80;;;;;;6299095;28;20233;-55
2022/01/11 13:29:05;;;;;;;45.03;25.93;;;1.10;6.60;;;;;;6297664;28;20277;-56
2022/01/11 13:32:08;;;;;;;39.27;25.70;;;1.60;6.90;;;;;;6298640;28;20378;-57
2022/01/11 13:35:12;;;;;;;42.53;26.77;;;1.30;8.30;;;;;;6298704;28;20774;-56
2022/01/11 13:38:15;;;;;;;45.17;26.93;;;1.20;8.20;;;;;;6300624;28;20233;-56
2022/01/11 13:41:28;;;;;;;44.83;27.13;;;1.20;8.90;;;;;;6300803;28;20373;-55
2022/01/11 13:44:43;;;;;;;50.17;28.00;;;1.20;10.10;;;;;;6302520;28;20314;-55
2022/01/11 13:47:49;;;;;;;45.73;27.40;;;1.10;11.20;;;;;;6295054;28;20462;-55
2022/01/11 13:50:55;;;;;;;43.47;27.57;;;1.10;11.90;;;;;;6294675;28;20237;-56
2022/01/11 13:54:00;;;;;;;49.80;27.67;;;1.00;13.40;;;;;;6297377;28;20320;-55
2022/01/11 13:57:06;;;;;;;46.60;26.67;;;1.00;12.20;;;;;;6296701;28;20873;-56
2022/01/11 14:00:13;;;;;;;48.40;27.23;;;0.90;12.00;;;;;;6296225;28;20370;-55
2022/01/11 14:03:20;;;;;;;43.23;26.23;;;0.80;11.90;;;;;;6300441;28;20225;-57
2022/01/11 14:06:23;;;;;;;45.10;26.50;;;0.80;13.00;;;;;;6297973;28;20255;-57
2022/01/11 14:09:32;;;;;;;39.07;24.80;;;0.90;13.40;;;;;;6303618;28;20566;-56
2022/01/11 14:12:42;;;;;;;48.53;26.60;;;1.00;12.90;;;;;;6298205;28;20280;-56
2022/01/11 14:16:08;;;;;;;43.93;26.23;;;0.90;13.60;;;;;;6298445;28;20224;-56
2022/01/11 14:19:12;;;;;;;44.70;26.93;;;0.80;14.40;;;;;;6296763;28;20839;-55
2022/01/11 14:22:16;;;;;;;44.37;26.27;;;0.70;14.90;;;;;;6296757;28;20302;-56
2022/01/11 14:25:22;;;;;;;47.83;26.50;;;0.60;15.90;;;;;;6294052;28;20314;-55
2022/01/11 14:28:28;;;;;;;46.13;26.53;;;0.60;15.30;;;;;;6296165;28;20237;-56
2022/01/11 14:31:33;;;;;;;42.00;25.77;;;0.50;17.30;;;;;;6298970;28;20313;-57
2022/01/11 14:34:36;;;;;;;42.13;25.63;;;0.60;17.30;;;;;;6299100;28;20278;-54
2022/01/11 14:37:39;;;;;;;43.40;25.50;;;0.60;16.10;;;;;;6299158;28;20493;-61
2022/01/11 14:41:02;;;;;;;43.37;27.50;;;0.70;16.80;;;;;;6296397;28;20819;-56
2022/01/11 14:44:08;;;;;;;46.53;25.63;;;0.30;17.90;;;;;;6296436;28;20232;-56
2022/01/11 14:47:12;;;;;;;45.70;26.03;;;0.50;17.90;;;;;;6296949;28;20233;-56
2022/01/11 14:50:22;;;;;;;47.63;27.33;;;0.30;18.90;;;;;;6297795;28;20313;-56
2022/01/11 14:53:31;;;;;;;48.93;27.93;;;0.30;20.40;;;;;;6294377;28;20772;-55
2022/01/11 14:56:34;;;;;;;47.13;27.83;;;0.30;20.90;;;;;;6296563;28;20239;-56
2022/01/11 14:59:39;;;;;;;47.30;28.10;;;0.20;21.80;;;;;;6299100;28;20232;-56
2022/01/11 15:02:42;;;;;;;48.10;26.87;;;0.30;22.10;;;;;;6295076;28;20229;-55
2022/01/11 15:05:45;;;;;;;48.47;27.13;;;0.10;22.30;;;;;;6298913;28;20254;-55
2022/01/11 15:08:50;;;;;;;50.30;28.87;;;-0.10;23.10;;;;;;6300370;28;20225;-56
2022/01/11 15:11:56;;;;;;;47.77;27.40;;;0.20;23.00;;;;;;6298812;28;20571;-55
2022/01/11 15:15:05;;;;;;;52.03;28.27;;;0.00;22.80;;;;;;6301211;28;20248;-55
2022/01/11 15:18:07;;;;;;;46.37;26.90;;;0.20;22.30;;;;;;6291860;28;20314;-55
2022/01/11 15:21:11;;;;;;;51.67;29.33;;;0.00;23.20;;;;;;6298401;28;20320;-54
2022/01/11 15:24:14;;;;;;;48.40;26.63;;;-0.10;23.30;;;;;;6306629;28;20262;-54
2022/01/11 15:27:17;;;;;;;50.83;28.73;;;0.00;25.00;;;;;;6308043;28;20317;-55
2022/01/11 15:30:22;;;;;;;56.13;28.27;;;-0.10;25.90;;;;;;6300695;28;20713;-59
2022/01/11 15:33:25;;;;;;;54.70;31.43;;;-0.40;25.90;;;;;;6303740;28;20243;-55
2022/01/11 15:36:28;;;;;;;57.97;30.10;;;-0.30;27.50;;;;;;6305446;28;20275;-55
2022/01/11 15:39:31;;;;;;;52.73;29.63;;;-0.30;27.50;;;;;;6302620;28;20731;-55